Time;durP1;ratioP1;P1;durP2;ratioP2;P2;SDS_P1;SDS_P2;PMS_P1;PMS_P2;Temp;Humidity;BMP_temperature;BMP_pressure;BME280_temperature;BME280_humidity;BME280_pressure;Samples;Min_cycle;Max_cycle;Signal;HPM_P1;HPM_P2
2024/03/19 00:00:49;;;;;;;35.08;33.03;;;;;;;2.50;100.00;100701.38;5085213;28;20692;-69
2024/03/19 00:03:17;;;;;;;33.65;31.40;;;;;;;2.37;100.00;100695.72;5081619;28;20048;-68
2024/03/19 00:05:44;;;;;;;36.67;34.38;;;;;;;2.49;100.00;100699.75;5086992;28;20496;-69
2024/03/19 00:08:11;;;;;;;32.80;30.80;;;;;;;2.59;100.00;100697.00;5077926;28;20044;-68
2024/03/19 00:10:40;;;;;;;32.25;30.02;;;;;;;2.48;100.00;100690.25;5086735;28;20089;-70
2024/03/19 00:13:07;;;;;;;34.97;32.85;;;;;;;2.19;100.00;100692.31;5078936;28;20079;-70
2024/03/19 00:15:34;;;;;;;30.50;28.60;;;;;;;2.15;100.00;100685.72;5081725;28;20117;-69
2024/03/19 00:18:01;;;;;;;29.70;27.80;;;;;;;2.13;100.00;100695.53;5086955;28;20047;-69
2024/03/19 00:20:30;;;;;;;30.80;28.90;;;;;;;1.95;100.00;100683.25;5085536;28;20139;-70
2024/03/19 00:22:57;;;;;;;30.38;28.58;;;;;;;1.92;100.00;100677.50;5085121;28;20060;-70
2024/03/19 00:25:25;;;;;;;31.58;29.58;;;;;;;2.00;100.00;100685.44;5083886;28;20052;-70
2024/03/19 00:27:54;;;;;;;29.35;27.45;;;;;;;1.64;100.00;100685.44;5081225;28;20062;-69
2024/03/19 00:30:21;;;;;;;33.60;31.40;;;;;;;1.99;100.00;100691.66;5087097;28;20462;-69
2024/03/19 00:32:50;;;;;;;30.48;28.60;;;;;;;1.49;100.00;100692.97;5088598;28;20515;-72
2024/03/19 00:35:18;;;;;;;33.60;31.55;;;;;;;1.67;100.00;100689.56;5069244;28;20105;-71
2024/03/19 00:37:45;;;;;;;32.92;31.02;;;;;;;1.98;100.00;100682.97;5087138;28;20781;-70
2024/03/19 00:40:13;;;;;;;31.85;29.70;;;;;;;1.62;100.00;100684.75;5079993;28;20055;-69
2024/03/19 00:42:40;;;;;;;32.72;30.73;;;;;;;1.86;100.00;100691.22;5086647;28;20549;-71
2024/03/19 00:45:10;;;;;;;33.42;31.25;;;;;;;1.41;100.00;100682.41;5084597;28;20055;-69
2024/03/19 00:47:37;;;;;;;32.78;30.73;;;;;;;1.74;100.00;100672.28;5087179;28;20060;-70
2024/03/19 00:50:05;;;;;;;34.33;32.10;;;;;;;1.44;100.00;100676.06;5088154;28;20044;-70
2024/03/19 00:52:33;;;;;;;34.17;32.15;;;;;;;1.46;100.00;100676.75;5089950;28;20055;-70
2024/03/19 00:55:00;;;;;;;30.70;28.80;;;;;;;1.40;100.00;100672.91;5087325;28;20052;-70
2024/03/19 00:57:27;;;;;;;28.50;26.90;;;;;;;1.25;100.00;100672.59;5086684;28;20060;-69
2024/03/19 00:59:54;;;;;;;28.27;26.67;;;;;;;1.35;100.00;100677.75;5087038;28;20105;-69
2024/03/19 01:02:23;;;;;;;29.88;28.17;;;;;;;1.53;100.00;100683.03;5085569;28;20052;-69
2024/03/19 01:04:50;;;;;;;29.27;27.58;;;;;;;1.42;100.00;100675.38;5088985;28;20059;-69
2024/03/19 01:07:18;;;;;;;31.23;29.48;;;;;;;1.56;100.00;100680.13;5090414;28;20105;-69
2024/03/19 01:09:45;;;;;;;32.20;30.40;;;;;;;1.33;100.00;100679.69;5089126;28;20425;-69
2024/03/19 01:12:12;;;;;;;34.88;32.67;;;;;;;1.35;100.00;100675.97;5086753;28;20060;-69
2024/03/19 01:14:40;;;;;;;32.25;30.45;;;;;;;1.29;100.00;100676.53;5086889;28;20148;-69
2024/03/19 01:17:07;;;;;;;31.52;29.73;;;;;;;1.11;100.00;100680.91;5078563;28;20064;-70
2024/03/19 01:19:35;;;;;;;28.58;26.88;;;;;;;0.98;100.00;100670.78;5081619;28;20048;-70
2024/03/19 01:22:03;;;;;;;28.63;26.77;;;;;;;0.73;100.00;100674.91;5084118;28;20473;-69
2024/03/19 01:24:30;;;;;;;31.42;29.10;;;;;;;1.19;100.00;100667.13;5089386;28;20054;-71
2024/03/19 01:26:58;;;;;;;27.55;26.05;;;;;;;1.38;100.00;100672.22;5085977;28;20056;-69
2024/03/19 01:29:31;;;;;;;27.30;25.80;;;;;;;1.04;100.00;100672.84;5084273;28;20106;-69
2024/03/19 01:31:58;;;;;;;31.58;29.45;;;;;;;0.83;100.00;100667.81;5083899;28;20102;-72
2024/03/19 01:34:25;;;;;;;28.80;27.10;;;;;;;0.78;100.00;100675.25;5087364;28;20068;-70
2024/03/19 01:36:54;;;;;;;30.65;28.85;;;;;;;0.88;100.00;100670.84;5076684;28;20500;-72
2024/03/19 01:39:22;;;;;;;28.30;26.60;;;;;;;0.73;100.00;100666.19;5090589;28;20068;-72
2024/03/19 01:41:53;;;;;;;28.30;26.70;;;;;;;0.77;100.00;100668.41;5089333;28;20054;-72
2024/03/19 01:44:21;;;;;;;28.98;27.38;;;;;;;0.64;100.00;100662.69;5086365;28;20439;-72
2024/03/19 01:46:49;;;;;;;34.17;31.88;;;;;;;0.93;100.00;100670.41;5081373;28;20048;-72
2024/03/19 01:49:18;;;;;;;31.98;30.25;;;;;;;0.88;100.00;100667.41;5077474;28;20052;-72
2024/03/19 01:51:45;;;;;;;33.10;31.10;;;;;;;0.98;100.00;100664.75;5087141;28;20114;-72
2024/03/19 01:54:14;;;;;;;37.95;35.75;;;;;;;1.18;100.00;100655.00;5087364;28;20048;-71
2024/03/19 01:56:48;;;;;;;32.97;30.98;;;;;;;0.78;100.00;100653.53;5084183;28;20509;-72
2024/03/19 01:59:24;;;;;;;31.48;29.48;;;;;;;0.69;100.00;100655.22;5089903;28;20109;-72
2024/03/19 02:01:51;;;;;;;29.60;27.92;;;;;;;0.81;100.00;100654.06;5083110;28;20040;-72
2024/03/19 02:04:18;;;;;;;31.85;29.70;;;;;;;0.63;100.00;100648.75;5080045;28;20052;-72
2024/03/19 02:06:46;;;;;;;32.88;30.55;;;;;;;0.49;100.00;100646.63;5090626;28;20064;-72
2024/03/19 02:09:15;;;;;;;33.03;31.02;;;;;;;0.58;100.00;100647.56;5089965;28;20048;-72
2024/03/19 02:11:42;;;;;;;30.05;28.35;;;;;;;0.41;100.00;100656.97;5085307;28;20123;-72
2024/03/19 02:14:12;;;;;;;32.85;30.92;;;;;;;0.49;100.00;100670.16;5082044;28;20107;-72
2024/03/19 02:16:41;;;;;;;30.65;28.85;;;;;;;0.31;100.00;100664.81;5074873;28;20044;-72
2024/03/19 02:19:08;;;;;;;34.67;32.65;;;;;;;0.52;100.00;100671.66;5087272;28;20492;-71
2024/03/19 02:21:36;;;;;;;32.83;31.13;;;;;;;0.57;100.00;100662.41;5087522;28;20056;-72
2024/03/19 02:24:05;;;;;;;33.42;31.48;;;;;;;0.37;100.00;100671.28;5085880;28;20109;-72
2024/03/19 02:26:32;;;;;;;30.02;28.33;;;;;;;0.51;100.00;100677.84;5086962;28;20735;-70
2024/03/19 02:29:01;;;;;;;31.63;29.83;;;;;;;0.32;100.00;100678.72;5081480;28;20044;-70
2024/03/19 02:31:30;;;;;;;33.25;31.25;;;;;;;0.56;100.00;100679.06;5086260;28;20147;-70
2024/03/19 02:33:59;;;;;;;30.38;28.75;;;;;;;0.64;100.00;100675.75;5083634;28;20086;-70
2024/03/19 02:36:26;;;;;;;30.17;28.52;;;;;;;0.74;100.00;100679.16;5088203;28;20048;-70
2024/03/19 02:38:53;;;;;;;31.67;29.80;;;;;;;0.56;100.00;100684.28;5087199;28;20546;-71
2024/03/19 02:41:22;;;;;;;32.53;30.33;;;;;;;0.87;100.00;100677.03;5085528;28;20055;-70
2024/03/19 02:43:49;;;;;;;30.30;28.60;;;;;;;0.62;100.00;100685.50;5088076;28;20052;-70
2024/03/19 02:46:16;;;;;;;29.90;28.20;;;;;;;0.49;100.00;100685.00;5083150;28;20052;-70
2024/03/19 02:48:43;;;;;;;29.38;27.58;;;;;;;0.39;100.00;100685.84;5087832;28;20633;-70
2024/03/19 02:51:10;;;;;;;30.38;28.67;;;;;;;0.41;100.00;100690.94;5085498;28;20047;-70
2024/03/19 02:53:38;;;;;;;31.08;29.27;;;;;;;0.32;100.00;100692.59;5083979;28;20063;-70
2024/03/19 02:56:05;;;;;;;28.50;26.60;;;;;;;0.56;100.00;100699.16;5087207;28;20123;-69
2024/03/19 02:58:34;;;;;;;26.25;24.75;;;;;;;0.84;100.00;100693.00;5083768;28;20097;-72
2024/03/19 03:01:03;;;;;;;28.17;26.48;;;;;;;0.76;100.00;100700.75;5082550;28;20044;-72
2024/03/19 03:03:30;;;;;;;28.73;27.02;;;;;;;0.77;100.00;100698.97;5085309;28;20139;-72
2024/03/19 03:06:03;;;;;;;28.55;26.77;;;;;;;0.78;100.00;100697.97;5076412;28;20565;-72
2024/03/19 03:08:30;;;;;;;26.33;24.75;;;;;;;0.84;100.00;100703.47;5085395;28;20040;-70
2024/03/19 03:10:58;;;;;;;27.08;25.50;;;;;;;0.87;100.00;100708.41;5080969;28;20131;-69
2024/03/19 03:13:25;;;;;;;28.33;26.83;;;;;;;0.99;100.00;100700.38;5078221;28;20049;-70
2024/03/19 03:15:54;;;;;;;29.05;27.45;;;;;;;0.97;100.00;100703.16;5086625;28;20408;-72
2024/03/19 03:18:21;;;;;;;28.15;26.05;;;;;;;1.45;100.00;100702.06;5073498;28;20137;-72
2024/03/19 03:20:54;;;;;;;26.17;24.70;;;;;;;1.51;100.00;100693.66;5088618;28;20497;-72
2024/03/19 03:23:21;;;;;;;26.75;25.10;;;;;;;1.52;100.00;100702.34;5077338;28;20101;-72
2024/03/19 03:25:51;;;;;;;23.05;21.75;;;;;;;1.55;100.00;100699.41;5087789;28;20486;-72
2024/03/19 03:28:19;;;;;;;22.50;21.10;;;;;;;1.68;100.00;100705.09;5085383;28;20055;-72
2024/03/19 03:30:46;;;;;;;24.58;23.17;;;;;;;1.96;100.00;100711.09;5089172;28;20773;-72
2024/03/19 03:33:16;;;;;;;23.92;22.23;;;;;;;2.11;100.00;100713.19;5082885;28;20047;-71
2024/03/19 03:35:43;;;;;;;24.40;22.95;;;;;;;2.25;100.00;100713.50;5072487;28;20049;-71
2024/03/19 03:38:10;;;;;;;24.25;22.55;;;;;;;2.42;100.00;100711.81;5079720;28;20098;-70
2024/03/19 03:40:37;;;;;;;23.00;21.60;;;;;;;2.46;100.00;100714.97;5080395;28;20101;-72
2024/03/19 03:43:05;;;;;;;22.95;21.55;;;;;;;2.62;100.00;100724.72;5076920;28;20044;-72
2024/03/19 03:45:32;;;;;;;24.38;22.88;;;;;;;2.57;100.00;100726.97;5072882;28;20048;-72
2024/03/19 03:48:01;;;;;;;24.73;23.08;;;;;;;2.66;100.00;100723.44;5087870;28;20953;-71
2024/03/19 03:50:30;;;;;;;24.70;23.10;;;;;;;2.81;100.00;100721.06;5070813;28;20586;-69
2024/03/19 03:52:57;;;;;;;29.95;27.95;;;;;;;2.75;100.00;100718.13;5085415;28;20044;-69
2024/03/19 03:55:24;;;;;;;26.08;24.23;;;;;;;2.89;100.00;100719.31;5082897;28;20106;-72
2024/03/19 03:57:52;;;;;;;24.13;22.60;;;;;;;2.94;100.00;100718.88;5080270;28;20118;-69
2024/03/19 04:00:20;;;;;;;22.88;21.25;;;;;;;2.91;100.00;100730.50;5079369;28;20040;-69
2024/03/19 04:02:48;;;;;;;22.45;20.95;;;;;;;3.25;100.00;100729.66;5081459;28;20101;-70
2024/03/19 04:05:15;;;;;;;24.23;22.65;;;;;;;3.27;100.00;100732.13;5083784;28;20056;-71
2024/03/19 04:07:47;;;;;;;23.92;21.83;;;;;;;3.38;100.00;100731.84;5082527;28;20056;-72
2024/03/19 04:10:15;;;;;;;23.25;21.73;;;;;;;3.21;100.00;100730.97;5083943;28;20049;-72
2024/03/19 04:12:43;;;;;;;26.67;24.98;;;;;;;3.34;100.00;100743.66;5082125;28;20102;-72
2024/03/19 04:15:12;;;;;;;23.35;21.60;;;;;;;3.41;100.00;100748.09;5078376;28;20052;-72
2024/03/19 04:17:40;;;;;;;23.75;22.15;;;;;;;3.37;100.00;100753.84;5075590;28;20052;-72
2024/03/19 04:20:10;;;;;;;26.30;23.83;;;;;;;3.32;100.00;100748.22;5077213;28;20113;-72
2024/03/19 04:22:38;;;;;;;23.95;22.40;;;;;;;3.42;100.00;100757.66;5081622;28;20140;-72
2024/03/19 04:25:08;;;;;;;25.33;23.40;;;;;;;3.41;100.00;100757.78;5077233;28;20040;-72
2024/03/19 04:27:36;;;;;;;23.92;22.52;;;;;;;3.47;100.00;100757.16;5092198;28;20046;-71
2024/03/19 04:30:04;;;;;;;24.33;22.80;;;;;;;3.50;100.00;100771.78;5092603;28;20496;-71
2024/03/19 04:32:31;;;;;;;25.15;23.70;;;;;;;3.42;100.00;100773.41;5089559;28;20566;-72
2024/03/19 04:34:58;;;;;;;26.42;24.83;;;;;;;3.55;100.00;100774.75;5087810;28;20118;-72
2024/03/19 04:37:27;;;;;;;25.70;24.05;;;;;;;3.55;100.00;100772.94;5084707;28;20082;-72
2024/03/19 04:39:54;;;;;;;25.30;23.80;;;;;;;3.59;100.00;100783.97;5081186;28;20048;-70
2024/03/19 04:42:23;;;;;;;26.42;24.92;;;;;;;3.75;100.00;100788.44;5087031;28;20440;-70
2024/03/19 04:44:50;;;;;;;25.65;24.05;;;;;;;3.62;100.00;100781.81;5075440;28;20136;-69
2024/03/19 04:47:19;;;;;;;27.50;25.77;;;;;;;3.73;100.00;100785.97;5086141;28;20515;-69
2024/03/19 04:49:47;;;;;;;20.80;19.60;;;;;;;3.70;100.00;100785.47;5088970;28;20043;-70
2024/03/19 04:52:14;;;;;;;22.15;20.67;;;;;;;3.84;100.00;100792.72;5089645;28;20052;-69
2024/03/19 04:54:41;;;;;;;21.27;19.98;;;;;;;3.96;100.00;100799.34;5091780;28;20602;-72
2024/03/19 04:57:10;;;;;;;21.95;20.05;;;;;;;3.96;100.00;100799.34;5089930;28;20048;-72
2024/03/19 04:59:39;;;;;;;22.88;21.48;;;;;;;3.79;100.00;100795.03;5088383;28;20079;-70
2024/03/19 05:02:06;;;;;;;23.23;21.83;;;;;;;3.88;100.00;100804.59;5087270;28;20044;-70
2024/03/19 05:04:33;;;;;;;21.48;20.27;;;;;;;3.94;100.00;100803.13;5087795;28;20060;-70
2024/03/19 05:07:00;;;;;;;24.40;23.00;;;;;;;4.16;100.00;100802.50;5088643;28;20059;-69
2024/03/19 05:09:27;;;;;;;29.70;27.48;;;;;;;4.00;100.00;100813.00;5084242;28;20060;-69
2024/03/19 05:11:55;;;;;;;33.20;30.55;;;;;;;4.17;100.00;100811.22;5086922;28;20051;-68
2024/03/19 05:14:22;;;;;;;29.60;27.70;;;;;;;4.19;100.00;100814.50;5086147;28;20060;-70
2024/03/19 05:16:53;;;;;;;29.17;27.13;;;;;;;4.38;100.00;100813.38;5086564;28;20129;-69
2024/03/19 05:19:20;;;;;;;31.05;28.77;;;;;;;4.43;100.00;100826.88;5088229;28;20740;-70
2024/03/19 05:21:49;;;;;;;24.50;22.88;;;;;;;4.34;100.00;100816.34;5083204;28;20048;-69
2024/03/19 05:24:16;;;;;;;23.77;22.17;;;;;;;4.33;100.00;100808.63;5087783;28;20782;-70
2024/03/19 05:26:43;;;;;;;25.40;23.60;;;;;;;4.34;100.00;100821.59;5090229;28;20047;-72
2024/03/19 05:29:11;;;;;;;23.33;21.83;;;;;;;4.48;100.00;100814.88;5085002;28;20056;-70
2024/03/19 05:31:38;;;;;;;23.95;22.45;;;;;;;4.48;100.00;100825.41;5088868;28;20125;-70
2024/03/19 05:34:06;;;;;;;28.65;26.58;;;;;;;4.48;100.00;100830.66;5087915;28;20054;-69
2024/03/19 05:36:33;;;;;;;29.45;27.30;;;;;;;4.62;100.00;100838.88;5073054;28;20482;-72
2024/03/19 05:39:04;;;;;;;23.77;22.17;;;;;;;4.70;100.00;100844.16;5090998;28;20101;-72
2024/03/19 05:41:31;;;;;;;24.63;23.02;;;;;;;5.37;100.00;100838.63;5074047;28;20059;-72
2024/03/19 05:43:58;;;;;;;25.73;23.92;;;;;;;4.89;100.00;100849.06;5086014;28;20047;-69
2024/03/19 05:46:25;;;;;;;23.40;21.90;;;;;;;5.15;100.00;100846.25;5074640;28;20086;-72
2024/03/19 05:48:53;;;;;;;22.55;21.13;;;;;;;4.65;100.00;100842.00;5084579;28;20035;-72
2024/03/19 05:51:21;;;;;;;22.60;21.20;;;;;;;4.79;100.00;100845.81;5089788;28;20085;-72
2024/03/19 05:53:50;;;;;;;25.98;23.88;;;;;;;4.78;100.00;100847.63;5085965;28;20052;-72
2024/03/19 05:56:17;;;;;;;24.90;23.30;;;;;;;4.89;100.00;100851.72;5089134;28;20500;-72
2024/03/19 05:58:45;;;;;;;25.98;24.17;;;;;;;5.35;100.00;100857.22;5088355;28;20067;-72
2024/03/19 06:01:12;;;;;;;26.40;24.60;;;;;;;5.76;100.00;100857.13;5091638;28;20040;-73
2024/03/19 06:03:39;;;;;;;29.13;27.02;;;;;;;5.12;100.00;100861.56;5085533;28;20044;-72
2024/03/19 06:06:09;;;;;;;25.08;23.38;;;;;;;5.19;100.00;100865.19;5083178;28;20857;-72
2024/03/19 06:08:39;;;;;;;27.83;26.13;;;;;;;5.51;100.00;100861.66;5082790;28;20139;-72
2024/03/19 06:11:07;;;;;;;30.92;28.92;;;;;;;5.64;100.00;100861.94;5085694;28;20044;-72
2024/03/19 06:13:34;;;;;;;28.70;26.70;;;;;;;4.73;100.00;100870.16;5081970;28;20098;-74
2024/03/19 06:16:02;;;;;;;27.52;25.67;;;;;;;5.09;100.00;100857.47;5074023;28;20053;-71
2024/03/19 06:18:29;;;;;;;28.10;25.33;;;;;;;4.93;100.00;100863.56;5074285;28;20144;-72
2024/03/19 06:20:56;;;;;;;30.10;28.10;;;;;;;5.48;100.00;100869.91;5087602;28;20047;-72
2024/03/19 06:23:24;;;;;;;29.25;27.35;;;;;;;4.76;100.00;100869.81;5077520;28;20060;-72
2024/03/19 06:25:53;;;;;;;29.67;27.67;;;;;;;5.16;100.00;100882.13;5070992;28;20127;-71
2024/03/19 06:28:20;;;;;;;30.60;28.40;;;;;;;5.04;100.00;100883.44;5071793;28;20109;-72
2024/03/19 06:30:47;;;;;;;28.38;26.38;;;;;;;4.63;100.00;100893.97;5078041;28;20047;-71
2024/03/19 06:33:14;;;;;;;29.05;26.92;;;;;;;4.65;100.00;100899.88;5090520;28;20055;-71
2024/03/19 06:35:42;;;;;;;27.52;25.60;;;;;;;5.40;100.00;100897.06;5090320;28;20455;-71
2024/03/19 06:38:09;;;;;;;33.83;31.25;;;;;;;5.30;100.00;100906.16;5085316;28;20421;-71
2024/03/19 06:40:36;;;;;;;34.60;32.10;;;;;;;6.02;100.00;100904.34;5083317;28;20491;-72
2024/03/19 06:43:05;;;;;;;33.40;31.10;;;;;;;5.82;100.00;100914.44;5087267;28;20052;-71
2024/03/19 06:45:32;;;;;;;34.38;32.08;;;;;;;5.59;100.00;100919.59;5078486;28;20044;-71
2024/03/19 06:47:59;;;;;;;35.95;33.55;;;;;;;5.92;100.00;100917.69;5089271;28;20051;-71
2024/03/19 06:50:27;;;;;;;35.75;33.45;;;;;;;5.50;100.00;100923.22;5089071;28;20556;-72
2024/03/19 06:52:55;;;;;;;35.88;33.58;;;;;;;5.60;100.00;100929.16;5089077;28;20056;-71
2024/03/19 06:55:22;;;;;;;35.15;32.85;;;;;;;5.10;100.00;100918.84;5084346;28;20051;-72
2024/03/19 06:57:51;;;;;;;33.72;31.52;;;;;;;5.03;100.00;100932.66;5081147;28;20311;-72
2024/03/19 07:00:20;;;;;;;35.60;33.10;;;;;;;5.29;100.00;100931.66;5083145;28;20127;-72
2024/03/19 07:02:47;;;;;;;37.72;35.22;;;;;;;5.57;100.00;100936.56;5083045;28;20048;-72
2024/03/19 07:05:15;;;;;;;34.53;32.33;;;;;;;5.17;100.00;100939.06;5082829;28;20052;-72
2024/03/19 07:07:42;;;;;;;31.55;29.65;;;;;;;4.87;100.00;100943.19;5087822;28;20051;-72
2024/03/19 07:10:12;;;;;;;32.33;30.23;;;;;;;5.13;100.00;100953.56;5081264;28;20056;-72
2024/03/19 07:12:40;;;;;;;34.58;32.17;;;;;;;5.93;100.00;100944.88;5087030;28;20894;-72
2024/03/19 07:15:11;;;;;;;32.13;30.13;;;;;;;5.14;100.00;100949.09;5077464;28;20409;-72
2024/03/19 07:17:41;;;;;;;31.20;29.30;;;;;;;5.43;100.00;100962.59;5079128;28;20653;-72
2024/03/19 07:20:12;;;;;;;32.28;30.27;;;;;;;6.85;100.00;100963.59;5091401;28;20748;-72
2024/03/19 07:22:40;;;;;;;31.33;29.25;;;;;;;6.17;100.00;100960.66;5086332;28;20052;-72
2024/03/19 07:25:10;;;;;;;34.20;32.10;;;;;;;5.07;100.00;100970.00;5086869;28;20832;-72
2024/03/19 07:27:39;;;;;;;37.60;35.40;;;;;;;5.47;100.00;100961.25;5083952;28;20101;-72
2024/03/19 07:30:09;;;;;;;38.83;36.42;;;;;;;5.68;100.00;100968.66;5088739;28;20225;-72
2024/03/19 07:32:36;;;;;;;38.22;35.72;;;;;;;5.88;100.00;100973.56;5075428;28;20114;-72
2024/03/19 07:35:05;;;;;;;37.20;35.03;;;;;;;6.00;100.00;100974.88;5081978;28;20061;-72
2024/03/19 07:37:33;;;;;;;37.78;35.50;;;;;;;5.03;100.00;100990.59;5086806;28;20056;-72
2024/03/19 07:40:00;;;;;;;41.33;38.72;;;;;;;6.43;100.00;101005.22;5085881;28;20048;-72
2024/03/19 07:42:27;;;;;;;38.00;35.50;;;;;;;6.06;100.00;100999.75;5078603;28;20052;-71
2024/03/19 07:44:55;;;;;;;33.85;31.75;;;;;;;5.03;100.00;101009.00;5085072;28;20052;-69
2024/03/19 07:47:22;;;;;;;30.20;28.40;;;;;;;5.18;100.00;101011.00;5077756;28;20551;-70
2024/03/19 07:49:49;;;;;;;31.45;29.45;;;;;;;5.08;100.00;101016.41;5085321;28;20048;-69
2024/03/19 07:52:18;;;;;;;30.73;28.95;;;;;;;5.31;100.00;101024.50;5085927;28;20052;-69
2024/03/19 07:54:48;;;;;;;35.38;33.17;;;;;;;5.06;100.00;101021.03;5085158;28;20080;-69
2024/03/19 07:57:15;;;;;;;36.22;33.92;;;;;;;5.03;100.00;101031.88;5084665;28;20045;-69
2024/03/19 07:59:42;;;;;;;31.73;29.80;;;;;;;4.76;100.00;101023.25;5085355;28;20052;-72
2024/03/19 08:02:09;;;;;;;32.75;30.77;;;;;;;5.46;100.00;101036.03;5085614;28;20052;-70
2024/03/19 08:04:38;;;;;;;33.00;30.80;;;;;;;4.98;100.00;101032.34;5086689;28;20110;-72
2024/03/19 08:07:06;;;;;;;35.00;32.80;;;;;;;4.94;100.00;101027.59;5088188;28;20052;-72
2024/03/19 08:09:35;;;;;;;34.80;32.75;;;;;;;5.14;100.00;101036.00;5087653;28;20055;-73
2024/03/19 08:12:05;;;;;;;34.03;31.92;;;;;;;4.72;100.00;101044.78;5087633;28;20097;-72
2024/03/19 08:14:35;;;;;;;34.35;32.20;;;;;;;4.52;100.00;101044.22;5084501;28;20135;-72
2024/03/19 08:17:02;;;;;;;33.25;31.25;;;;;;;4.25;100.00;101046.06;5081837;28;20052;-71
2024/03/19 08:19:33;;;;;;;33.67;31.55;;;;;;;4.20;100.00;101047.50;5084194;28;20052;-72
2024/03/19 08:22:00;;;;;;;36.00;33.70;;;;;;;5.25;100.00;101051.50;5081793;28;20474;-70
2024/03/19 08:24:27;;;;;;;32.25;30.05;;;;;;;6.17;100.00;101058.25;5082777;28;20052;-70
2024/03/19 08:26:56;;;;;;;34.33;32.13;;;;;;;5.37;100.00;101063.38;5081685;28;20134;-70
2024/03/19 08:29:23;;;;;;;40.08;37.75;;;;;;;5.38;100.00;101058.91;5083423;28;20504;-69
2024/03/19 08:31:50;;;;;;;35.75;33.75;;;;;;;7.06;100.00;101055.38;5082778;28;20113;-69
2024/03/19 08:34:17;;;;;;;36.55;34.45;;;;;;;4.49;100.00;101053.25;5082111;28;20056;-72
2024/03/19 08:36:45;;;;;;;34.20;32.20;;;;;;;4.35;100.00;101065.19;5077594;28;20732;-71
2024/03/19 08:39:12;;;;;;;37.83;35.55;;;;;;;4.26;100.00;101066.13;5075235;28;20051;-72
2024/03/19 08:41:40;;;;;;;37.22;35.00;;;;;;;4.99;100.00;101068.25;5077151;28;20492;-73
2024/03/19 08:44:09;;;;;;;36.10;33.90;;;;;;;5.39;100.00;101076.38;5077177;28;20052;-72
2024/03/19 08:46:36;;;;;;;33.88;31.88;;;;;;;4.33;100.00;101071.59;5073506;28;20258;-72
2024/03/19 08:49:03;;;;;;;32.40;30.50;;;;;;;4.24;100.00;101077.78;5070288;28;20105;-72
2024/03/19 08:51:31;;;;;;;31.83;29.30;;;;;;;4.20;100.00;101074.63;5072720;28;20044;-73
2024/03/19 08:53:58;;;;;;;31.38;29.38;;;;;;;4.30;100.00;101074.53;5087373;28;20051;-72
2024/03/19 08:56:26;;;;;;;33.10;31.10;;;;;;;4.57;100.00;101076.97;5081182;28;20052;-72
2024/03/19 08:58:54;;;;;;;33.38;31.48;;;;;;;4.42;100.00;101083.81;5084691;28;20509;-72
2024/03/19 09:01:22;;;;;;;31.63;29.73;;;;;;;4.83;100.00;101083.97;5079690;28;20105;-72
2024/03/19 09:03:51;;;;;;;28.45;26.75;;;;;;;4.77;100.00;101081.97;5072325;28;20060;-72
2024/03/19 09:06:20;;;;;;;33.80;31.65;;;;;;;4.64;100.00;101089.50;5085417;28;20056;-72
2024/03/19 09:08:47;;;;;;;32.72;30.63;;;;;;;5.06;100.00;101100.00;5087509;28;20056;-72
2024/03/19 09:11:14;;;;;;;30.67;28.80;;;;;;;4.36;100.00;101093.16;5082209;28;20105;-72
2024/03/19 09:13:42;;;;;;;31.20;29.30;;;;;;;4.29;100.00;101096.53;5092761;28;20415;-70
2024/03/19 09:16:11;;;;;;;30.50;28.60;;;;;;;4.49;100.00;101095.34;5086718;28;20052;-71
2024/03/19 09:18:42;;;;;;;33.50;31.48;;;;;;;4.54;100.00;101100.97;5075758;28;20055;-69
2024/03/19 09:21:09;;;;;;;31.52;29.65;;;;;;;3.98;100.00;101099.63;5084265;28;20056;-70
2024/03/19 09:23:36;;;;;;;30.50;28.58;;;;;;;4.16;100.00;101096.13;5084578;28;20059;-70
2024/03/19 09:26:04;;;;;;;29.45;27.23;;;;;;;4.19;100.00;101101.91;5084260;28;20490;-71
2024/03/19 09:28:31;;;;;;;31.90;29.85;;;;;;;4.34;100.00;101107.44;5086570;28;20136;-72
2024/03/19 09:30:59;;;;;;;30.55;28.85;;;;;;;4.33;100.00;101111.88;5091564;28;20051;-72
2024/03/19 09:33:26;;;;;;;31.95;30.05;;;;;;;4.35;100.00;101112.53;5080913;28;20548;-72
2024/03/19 09:35:55;;;;;;;33.47;31.40;;;;;;;4.35;100.00;101115.16;5073995;28;20049;-71
2024/03/19 09:38:24;;;;;;;32.38;30.48;;;;;;;4.20;100.00;101127.22;5073003;28;20135;-72
2024/03/19 09:40:55;;;;;;;31.08;29.27;;;;;;;4.61;100.00;101119.56;5087943;28;20501;-71
2024/03/19 09:43:24;;;;;;;31.60;29.90;;;;;;;4.60;100.00;101128.47;5090949;28;20052;-72
2024/03/19 09:45:52;;;;;;;31.23;29.50;;;;;;;4.76;100.00;101127.72;5074714;28;20060;-69
2024/03/19 09:48:20;;;;;;;32.55;30.65;;;;;;;4.91;100.00;101127.94;5074394;28;20062;-69
2024/03/19 09:50:49;;;;;;;31.80;29.50;;;;;;;4.48;100.00;101130.53;5074818;28;20058;-70
2024/03/19 09:53:20;;;;;;;30.52;28.83;;;;;;;4.43;100.00;101130.16;5081329;28;20212;-69
2024/03/19 09:55:47;;;;;;;32.30;30.30;;;;;;;4.16;100.00;101128.50;5074338;28;20132;-72
2024/03/19 09:58:15;;;;;;;30.20;28.30;;;;;;;4.12;100.00;101143.78;5084107;28;20052;-72
2024/03/19 10:00:45;;;;;;;31.60;29.70;;;;;;;4.44;100.00;101139.69;5078291;28;20126;-70
2024/03/19 10:03:12;;;;;;;28.85;27.15;;;;;;;4.29;100.00;101135.97;5080900;28;20055;-70
2024/03/19 10:05:39;;;;;;;30.13;28.33;;;;;;;4.56;100.00;101148.16;5074934;28;20145;-70
2024/03/19 10:08:07;;;;;;;31.30;29.40;;;;;;;4.92;100.00;101140.09;5080970;28;20048;-70
2024/03/19 10:10:37;;;;;;;27.83;26.15;;;;;;;4.41;100.00;101142.63;5074777;28;20049;-71
2024/03/19 10:13:04;;;;;;;30.13;28.33;;;;;;;4.42;100.00;101146.94;5068676;28;20534;-70
2024/03/19 10:15:31;;;;;;;34.85;32.47;;;;;;;4.02;100.00;101145.66;5074325;28;20127;-72
2024/03/19 10:17:59;;;;;;;32.70;30.70;;;;;;;4.36;100.00;101148.38;5089315;28;20135;-70
2024/03/19 10:20:28;;;;;;;32.72;30.83;;;;;;;4.84;100.00;101143.50;5082674;28;20424;-72
2024/03/19 10:22:55;;;;;;;31.10;29.30;;;;;;;4.26;100.00;101147.63;5081545;28;20086;-72
2024/03/19 10:25:22;;;;;;;31.48;29.60;;;;;;;4.35;100.00;101144.06;5075660;28;20200;-70
2024/03/19 10:27:50;;;;;;;35.33;33.33;;;;;;;4.20;100.00;101148.25;5084038;28;20048;-70
2024/03/19 10:30:21;;;;;;;41.13;38.72;;;;;;;4.62;100.00;101149.34;5076508;28;20048;-73
2024/03/19 10:32:49;;;;;;;38.10;36.00;;;;;;;4.52;100.00;101149.44;5079081;28;20047;-72
2024/03/19 10:35:22;;;;;;;33.88;31.88;;;;;;;4.56;100.00;101145.53;5085533;28;20530;-70
2024/03/19 10:37:50;;;;;;;33.47;31.48;;;;;;;4.77;100.00;101145.13;5079071;28;20060;-69
2024/03/19 10:40:19;;;;;;;34.95;32.60;;;;;;;4.56;100.00;101143.72;5079283;28;20105;-70
2024/03/19 10:42:48;;;;;;;37.42;35.22;;;;;;;4.51;100.00;101145.19;5083658;28;20059;-69
2024/03/19 10:45:21;;;;;;;43.85;40.78;;;;;;;4.58;100.00;101143.56;5078683;28;20140;-69
2024/03/19 10:47:49;;;;;;;34.63;32.65;;;;;;;4.48;100.00;101151.56;5082633;28;20058;-70
2024/03/19 10:50:18;;;;;;;40.03;37.83;;;;;;;4.21;100.00;101149.09;5081982;28;20143;-71
2024/03/19 10:52:50;;;;;;;31.80;30.00;;;;;;;4.41;100.00;101144.44;5079893;28;20106;-69
2024/03/19 10:55:20;;;;;;;32.92;30.92;;;;;;;4.53;100.00;101146.66;5072881;28;20802;-69
2024/03/19 10:57:48;;;;;;;38.55;35.58;;;;;;;5.05;100.00;101151.00;5081129;28;20052;-71
2024/03/19 11:00:25;;;;;;;32.38;30.50;;;;;;;4.25;100.00;101145.16;5078759;28;20047;-71
2024/03/19 11:02:56;;;;;;;33.22;31.33;;;;;;;4.98;100.00;101142.09;5081604;28;20044;-72
2024/03/19 11:05:23;;;;;;;39.92;37.15;;;;;;;4.46;100.00;101147.44;5087511;28;20055;-72
2024/03/19 11:07:51;;;;;;;33.53;31.63;;;;;;;4.34;100.00;101152.13;5084577;28;20048;-72
2024/03/19 11:10:29;;;;;;;33.35;31.42;;;;;;;4.44;100.00;101146.75;5076556;28;20071;-72
2024/03/19 11:12:57;;;;;;;33.97;31.98;;;;;;;5.13;100.00;101153.69;5073612;28;20106;-72